createdAt,value
2018-05-24T00:00:25.566Z,9.83
2018-05-24T00:02:28.261Z,7.93
2018-05-24T00:04:30.976Z,6.00
2018-05-24T00:06:34.708Z,6.93
2018-05-24T00:08:37.417Z,8.90
2018-05-24T00:10:40.137Z,6.73
2018-05-24T00:12:42.833Z,12.03
2018-05-24T00:14:45.517Z,11.43
2018-05-24T00:16:48.242Z,5.30
2018-05-24T00:18:50.916Z,8.07
2018-05-24T00:20:53.620Z,6.50
2018-05-24T00:22:57.446Z,10.83
2018-05-24T00:25:00.147Z,7.37
2018-05-24T00:27:02.871Z,10.13
2018-05-24T00:29:06.320Z,8.00
2018-05-24T00:31:09.039Z,8.10
2018-05-24T00:33:12.551Z,11.17
2018-05-24T00:35:15.264Z,8.70
2018-05-24T00:37:17.994Z,7.53
2018-05-24T00:39:21.464Z,7.37
2018-05-24T00:41:24.171Z,7.00
2018-05-24T00:43:26.849Z,12.40
2018-05-24T00:45:29.528Z,5.10
2018-05-24T00:47:32.232Z,7.90
2018-05-24T00:49:34.944Z,16.67
2018-05-24T00:51:37.679Z,9.13
2018-05-24T00:53:40.364Z,7.33
2018-05-24T00:55:43.112Z,7.97
2018-05-24T00:57:45.816Z,6.83
2018-05-24T00:59:48.488Z,9.70
2018-05-24T01:01:51.199Z,6.57
2018-05-24T01:03:53.875Z,8.83
2018-05-24T01:05:56.563Z,7.80
2018-05-24T01:07:59.288Z,7.40
2018-05-24T01:10:01.978Z,15.10
2018-05-24T01:12:04.645Z,9.87
2018-05-24T01:14:07.370Z,8.33
2018-05-24T01:16:10.033Z,10.03
2018-05-24T01:18:12.728Z,7.80
2018-05-24T01:20:15.397Z,7.03
2018-05-24T01:22:18.353Z,5.30
2018-05-24T01:24:21.061Z,11.03
2018-05-24T01:26:25.866Z,6.43
2018-05-24T01:28:29.385Z,10.77
2018-05-24T01:30:32.826Z,4.90
2018-05-24T01:32:35.616Z,7.07
2018-05-24T01:34:38.330Z,8.20
2018-05-24T01:36:53.031Z,8.20
2018-05-24T01:38:55.753Z,8.30
2018-05-24T01:40:58.447Z,6.73
2018-05-24T01:43:01.117Z,4.40
2018-05-24T01:45:03.857Z,5.03
2018-05-24T01:47:06.559Z,11.37
2018-05-24T01:49:09.255Z,7.50
2018-05-24T01:51:11.930Z,6.47
2018-05-24T01:53:14.622Z,7.00
2018-05-24T01:55:18.112Z,8.40
2018-05-24T01:57:21.541Z,4.20
2018-05-24T01:59:24.246Z,11.93
2018-05-24T02:01:26.929Z,8.13
2018-05-24T02:03:29.634Z,10.10
2018-05-24T02:05:33.140Z,7.93
2018-05-24T02:07:36.680Z,10.20
2018-05-24T02:09:39.436Z,4.77
2018-05-24T02:11:42.167Z,10.13
2018-05-24T02:13:44.874Z,9.20
2018-05-24T02:15:47.572Z,7.23
2018-05-24T02:17:50.267Z,6.20
2018-05-24T02:19:52.953Z,9.33
2018-05-24T02:21:55.652Z,5.43
2018-05-24T02:23:58.337Z,13.60
2018-05-24T02:26:01.838Z,12.80
2018-05-24T02:28:04.605Z,9.20
2018-05-24T02:30:07.332Z,9.07
2018-05-24T02:32:10.104Z,6.57
2018-05-24T02:34:12.816Z,11.30
2018-05-24T02:36:15.512Z,8.90
2018-05-24T02:38:18.224Z,14.07
2018-05-24T02:40:20.907Z,8.93
2018-05-24T02:42:23.621Z,7.73
2018-05-24T02:44:26.304Z,7.67
2018-05-24T02:46:29.032Z,8.50
2018-05-24T02:48:31.739Z,7.27
2018-05-24T02:50:34.413Z,5.90
2018-05-24T02:52:37.142Z,7.00
2018-05-24T02:54:40.574Z,9.07
2018-05-24T02:56:43.354Z,7.00
2018-05-24T02:58:46.048Z,8.20
2018-05-24T03:00:48.720Z,10.43
2018-05-24T03:02:51.436Z,4.57
2018-05-24T03:04:54.149Z,7.50
2018-05-24T03:06:56.980Z,9.43
2018-05-24T03:08:59.779Z,8.80
2018-05-24T03:11:02.421Z,9.77
2018-05-24T03:13:05.127Z,6.73
2018-05-24T03:15:07.817Z,4.90
2018-05-24T03:17:11.247Z,5.13
2018-05-24T03:19:14.051Z,9.80
2018-05-24T03:21:16.764Z,7.20
2018-05-24T03:23:19.472Z,6.93
2018-05-24T03:25:22.148Z,9.60
2018-05-24T03:27:24.982Z,4.50
2018-05-24T03:29:27.797Z,8.23
2018-05-24T03:31:30.505Z,8.53
2018-05-24T03:33:33.229Z,19.67
2018-05-24T03:35:38.022Z,7.70
2018-05-24T03:37:40.706Z,5.37
2018-05-24T03:39:43.643Z,6.27
2018-05-24T03:41:46.447Z,8.20
2018-05-24T03:43:49.192Z,10.50
2018-05-24T03:46:02.934Z,7.40
2018-05-24T03:48:07.819Z,5.83
2018-05-24T03:50:10.568Z,5.73
2018-05-24T03:52:13.515Z,5.03
2018-05-24T03:54:16.234Z,6.00
2018-05-24T03:56:18.903Z,5.50
2018-05-24T03:58:21.580Z,8.53
2018-05-24T04:00:36.266Z,6.07
2018-05-24T04:02:50.816Z,10.13
2018-05-24T04:04:53.574Z,7.70
2018-05-24T04:06:56.260Z,5.27
2018-05-24T04:08:59.040Z,9.07
2018-05-24T04:11:01.752Z,7.00
2018-05-24T04:13:05.199Z,6.13
2018-05-24T04:15:07.941Z,6.70
2018-05-24T04:17:14.240Z,8.00
2018-05-24T04:19:16.939Z,11.67
2018-05-24T04:21:19.649Z,9.77
2018-05-24T04:23:23.182Z,10.57
2018-05-24T04:25:26.115Z,17.80
2018-05-24T04:27:29.593Z,9.90
2018-05-24T04:29:32.294Z,12.20
2018-05-24T04:31:35.775Z,13.63
2018-05-24T04:33:38.458Z,20.97
2018-05-24T04:35:41.890Z,19.10
2018-05-24T04:37:44.569Z,16.20
2018-05-24T04:39:47.406Z,20.73
2018-05-24T04:41:50.894Z,16.40
2018-05-24T04:43:53.578Z,16.70
2018-05-24T04:45:57.029Z,14.30
2018-05-24T04:47:59.763Z,13.33
2018-05-24T04:50:03.225Z,12.77
2018-05-24T04:52:05.995Z,16.20
2018-05-24T04:54:09.124Z,15.77
2018-05-24T04:56:12.694Z,15.30
2018-05-24T04:58:15.394Z,18.00
2018-05-24T05:00:18.841Z,25.40
2018-05-24T05:02:21.542Z,25.50
2018-05-24T05:04:24.218Z,20.23
2018-05-24T05:06:26.923Z,21.60
2018-05-24T05:08:30.395Z,20.60
2018-05-24T05:10:33.107Z,19.80
2018-05-24T05:12:35.822Z,18.27
2018-05-24T05:14:38.595Z,20.10
2018-05-24T05:16:41.271Z,25.13
2018-05-24T05:18:44.148Z,17.43
2018-05-24T05:20:46.840Z,21.20
2018-05-24T05:22:50.548Z,17.53
2018-05-24T05:24:55.783Z,20.90
2018-05-24T05:26:58.557Z,17.80
2018-05-24T05:29:01.272Z,22.33
2018-05-24T05:31:04.737Z,17.17
2018-05-24T05:33:07.436Z,14.30
2018-05-24T05:35:10.894Z,10.00
2018-05-24T05:37:13.585Z,11.27
2018-05-24T05:39:16.335Z,8.67
2018-05-24T05:41:19.039Z,11.37
2018-05-24T05:43:45.335Z,8.80
2018-05-24T05:45:48.812Z,7.50
2018-05-24T05:47:51.529Z,8.50
2018-05-24T05:49:54.240Z,10.20
2018-05-24T05:51:56.997Z,11.37
2018-05-24T05:53:59.704Z,6.40
2018-05-24T05:56:02.452Z,10.73
2018-05-24T05:58:05.165Z,14.90
2018-05-24T06:00:07.931Z,8.30
2018-05-24T06:02:10.657Z,15.53
2018-05-24T06:04:14.118Z,11.17
2018-05-24T06:06:16.815Z,8.20
2018-05-24T06:08:19.504Z,8.90
2018-05-24T06:10:22.980Z,12.10
2018-05-24T06:12:25.714Z,18.40
2018-05-24T06:14:28.390Z,18.10
2018-05-24T06:16:31.087Z,14.00
2018-05-24T06:18:33.765Z,10.23
2018-05-24T06:20:36.489Z,10.90
2018-05-24T06:22:39.967Z,14.33
2018-05-24T06:24:42.652Z,10.63
2018-05-24T06:26:46.146Z,11.60
2018-05-24T06:28:48.845Z,13.03
2018-05-24T06:30:52.347Z,11.87
2018-05-24T06:32:55.044Z,10.50
2018-05-24T06:34:57.721Z,12.97
2018-05-24T06:37:00.563Z,13.10
2018-05-24T06:39:04.039Z,10.57
2018-05-24T06:41:06.759Z,10.00
2018-05-24T06:43:09.448Z,14.03
2018-05-24T06:45:12.152Z,14.27
2018-05-24T06:47:15.018Z,15.13
2018-05-24T06:49:17.706Z,13.13
2018-05-24T06:51:20.434Z,16.33
2018-05-24T06:53:23.903Z,11.70
2018-05-24T06:55:26.604Z,15.10
2018-05-24T06:57:30.078Z,10.43
2018-05-24T06:59:32.770Z,15.50
2018-05-24T07:01:36.254Z,10.73
2018-05-24T07:03:38.969Z,15.23
2018-05-24T07:05:41.887Z,13.27
2018-05-24T07:07:44.677Z,10.83
2018-05-24T07:09:47.361Z,11.53
2018-05-24T07:11:50.122Z,15.37
2018-05-24T07:13:52.859Z,19.77
2018-05-24T07:15:55.668Z,11.63
2018-05-24T07:17:58.440Z,15.00
2018-05-24T07:20:01.145Z,18.50
2018-05-24T07:22:03.905Z,13.00
2018-05-24T07:24:06.605Z,13.37
2018-05-24T07:26:09.386Z,14.60
2018-05-24T07:28:12.107Z,18.10
2018-05-24T07:30:14.822Z,12.13
2018-05-24T07:32:17.497Z,18.83
2018-05-24T07:34:20.199Z,14.80
2018-05-24T07:36:22.884Z,16.97
2018-05-24T07:38:26.486Z,17.20
2018-05-24T07:40:29.962Z,16.00
2018-05-24T07:42:32.657Z,13.50
2018-05-24T07:44:36.135Z,17.40
2018-05-24T07:46:38.801Z,11.80
2018-05-24T07:48:41.581Z,19.77
2018-05-24T07:50:44.258Z,15.87
2018-05-24T07:52:46.958Z,17.60
2018-05-24T07:54:50.501Z,17.07
2018-05-24T07:56:53.145Z,14.00
2018-05-24T07:58:55.832Z,11.63
2018-05-24T08:00:59.470Z,17.60
2018-05-24T08:03:04.221Z,17.10
2018-05-24T08:05:07.732Z,14.63
2018-05-24T08:07:11.181Z,14.30
2018-05-24T08:09:13.868Z,14.90
2018-05-24T08:11:16.664Z,13.80
2018-05-24T08:13:19.596Z,11.37
2018-05-24T08:15:22.804Z,18.37
2018-05-24T08:17:25.512Z,16.03
2018-05-24T08:19:28.220Z,12.53
2018-05-24T08:21:30.945Z,12.73
2018-05-24T08:23:33.672Z,13.37
2018-05-24T08:25:36.399Z,12.17
2018-05-24T08:27:40.163Z,14.60
2018-05-24T08:29:43.037Z,17.00
2018-05-24T08:31:46.255Z,14.70
2018-05-24T08:33:49.145Z,12.83
2018-05-24T08:35:51.892Z,15.13
2018-05-24T08:37:54.665Z,15.30
2018-05-24T08:39:57.341Z,14.10
2018-05-24T08:42:00.089Z,17.13
2018-05-24T08:44:02.892Z,12.63
2018-05-24T08:46:05.667Z,12.50
2018-05-24T08:48:09.155Z,14.27
2018-05-24T08:50:12.602Z,11.67
2018-05-24T08:52:15.364Z,15.40
2018-05-24T08:54:18.055Z,11.03
2018-05-24T08:56:20.755Z,13.40
2018-05-24T08:58:23.460Z,11.37
2018-05-24T09:00:26.929Z,18.10
2018-05-24T09:02:29.640Z,10.93
2018-05-24T09:04:32.323Z,13.03
2018-05-24T09:06:35.013Z,17.40
2018-05-24T09:08:37.729Z,11.33
2018-05-24T09:10:40.440Z,19.93
2018-05-24T09:12:43.919Z,24.13
2018-05-24T09:14:46.615Z,13.43
2018-05-24T09:16:49.301Z,13.63
2018-05-24T09:18:52.033Z,11.40
2018-05-24T09:20:54.722Z,13.40
2018-05-24T09:22:57.424Z,11.93
2018-05-24T09:25:00.223Z,14.60
2018-05-24T09:27:02.938Z,13.80
2018-05-24T09:29:05.649Z,20.10
2018-05-24T09:31:09.116Z,15.33
2018-05-24T09:33:11.917Z,13.20
2018-05-24T09:35:16.239Z,10.73
2018-05-24T09:37:19.681Z,14.97
2018-05-24T09:39:22.396Z,14.30
2018-05-24T09:41:25.865Z,16.10
2018-05-24T09:43:28.576Z,12.93
2018-05-24T09:45:32.068Z,13.67
2018-05-24T09:47:35.570Z,13.33
2018-05-24T09:49:39.062Z,22.43
2018-05-24T09:51:42.539Z,13.00
2018-05-24T09:53:45.285Z,20.50
2018-05-24T09:55:48.580Z,13.63
2018-05-24T09:57:51.276Z,15.70
2018-05-24T09:59:54.219Z,21.27
2018-05-24T10:01:56.933Z,17.40
2018-05-24T10:03:59.610Z,28.53
2018-05-24T10:06:02.334Z,13.90
2018-05-24T10:08:05.019Z,16.60
2018-05-24T10:10:07.743Z,15.47
2018-05-24T10:12:10.455Z,16.47
2018-05-24T10:14:14.405Z,14.40
2018-05-24T10:16:17.258Z,11.87
2018-05-24T10:18:19.888Z,12.83
2018-05-24T10:20:22.621Z,15.33
2018-05-24T10:22:25.321Z,18.70
2018-05-24T10:24:27.997Z,15.10
2018-05-24T10:26:30.714Z,13.83
2018-05-24T10:28:34.172Z,13.73
2018-05-24T10:30:36.870Z,18.57
2018-05-24T10:32:39.582Z,17.73
2018-05-24T10:34:42.295Z,14.93
2018-05-24T10:36:45.122Z,16.20
2018-05-24T10:38:48.569Z,20.27
2018-05-24T10:40:51.284Z,14.37
2018-05-24T10:42:53.972Z,15.43
2018-05-24T10:44:57.425Z,16.17
2018-05-24T10:47:00.210Z,16.47
2018-05-24T10:49:02.902Z,15.83
2018-05-24T10:51:05.760Z,19.53
2018-05-24T10:53:09.148Z,15.70
2018-05-24T10:55:11.840Z,13.50
2018-05-24T10:57:14.574Z,19.10
2018-05-24T10:59:17.269Z,14.70
2018-05-24T11:01:19.979Z,13.70
2018-05-24T11:03:22.728Z,12.63
2018-05-24T11:05:25.480Z,15.00
2018-05-24T11:07:28.206Z,12.37
2018-05-24T11:09:30.920Z,14.13
2018-05-24T11:11:33.697Z,16.67
2018-05-24T11:13:36.650Z,20.87
2018-05-24T11:15:40.119Z,24.13
2018-05-24T11:17:42.869Z,16.10
2018-05-24T11:19:45.588Z,12.60
2018-05-24T11:21:48.288Z,17.13
2018-05-24T11:23:51.002Z,13.20
2018-05-24T11:25:53.917Z,12.20
2018-05-24T11:27:56.652Z,17.10
2018-05-24T11:30:02.457Z,13.07
2018-05-24T11:32:05.293Z,19.27
2018-05-24T11:34:07.951Z,17.83
2018-05-24T11:36:10.689Z,20.43
2018-05-24T11:38:13.441Z,15.87
2018-05-24T11:40:16.169Z,14.83
2018-05-24T11:42:20.220Z,18.20
2018-05-24T11:44:23.001Z,13.30
2018-05-24T11:46:25.704Z,15.80
2018-05-24T11:48:28.403Z,17.97
2018-05-24T11:50:31.884Z,14.20
2018-05-24T11:52:34.569Z,22.57
2018-05-24T11:54:37.278Z,13.93
2018-05-24T11:56:40.177Z,15.87
2018-05-24T11:58:42.886Z,13.90
2018-05-24T12:00:45.596Z,15.50
2018-05-24T12:02:49.058Z,16.20
2018-05-24T12:04:51.812Z,21.77
2018-05-24T12:06:54.605Z,16.73
2018-05-24T12:08:57.298Z,19.93
2018-05-24T12:11:00.004Z,16.57
2018-05-24T12:13:03.482Z,16.07
2018-05-24T12:15:06.221Z,21.07
2018-05-24T12:17:08.923Z,20.20
2018-05-24T12:19:11.692Z,21.03
2018-05-24T12:23:23.298Z,16.40
2018-05-24T12:25:26.381Z,17.57
2018-05-24T12:27:29.216Z,26.00
2018-05-24T12:29:31.911Z,18.00
2018-05-24T12:31:34.644Z,19.40
2018-05-24T12:33:38.120Z,16.77
2018-05-24T12:35:40.900Z,18.43
2018-05-24T12:37:43.823Z,15.80
2018-05-24T12:39:47.641Z,18.40
2018-05-24T12:41:50.896Z,18.13
2018-05-24T12:43:53.590Z,16.83
2018-05-24T12:45:57.080Z,13.80
2018-05-24T12:48:00.570Z,15.50
2018-05-24T12:50:04.061Z,14.80
2018-05-24T12:52:06.843Z,19.30
2018-05-24T12:54:10.349Z,15.20
2018-05-24T12:56:13.107Z,14.20
2018-05-24T12:58:15.806Z,22.00
2018-05-24T13:00:19.578Z,25.20
2018-05-24T13:02:22.305Z,22.10
2018-05-24T13:04:26.206Z,15.40
2018-05-24T13:06:28.935Z,12.70
2018-05-24T13:08:31.658Z,12.40
2018-05-24T13:10:34.383Z,13.60
2018-05-24T13:12:37.098Z,18.10
2018-05-24T13:14:40.557Z,13.37
2018-05-24T13:16:43.271Z,20.80
2018-05-24T13:18:45.970Z,11.20
2018-05-24T13:20:48.774Z,16.83
2018-05-24T13:22:51.571Z,13.43
2018-05-24T13:24:54.308Z,13.60
2018-05-24T13:26:56.997Z,13.63
2018-05-24T13:28:59.691Z,15.27
2018-05-24T13:31:03.885Z,10.10
2018-05-24T13:33:06.619Z,12.87
2018-05-24T13:35:10.076Z,8.90
2018-05-24T13:37:13.025Z,14.03
2018-05-24T13:39:15.751Z,18.60
2018-05-24T13:41:18.444Z,19.50
2018-05-24T13:43:21.169Z,12.73
2018-05-24T13:45:23.926Z,21.60
2018-05-24T13:47:26.638Z,19.97
2018-05-24T13:49:29.353Z,19.27
2018-05-24T13:51:32.810Z,13.83
2018-05-24T13:53:35.496Z,12.23
2018-05-24T13:55:38.371Z,17.90
2018-05-24T13:57:45.761Z,16.63
2018-05-24T13:59:48.986Z,15.20
2018-05-24T14:01:52.466Z,12.77
2018-05-24T14:03:56.085Z,17.97
2018-05-24T14:05:59.600Z,14.83
2018-05-24T14:08:02.319Z,13.30
2018-05-24T14:10:05.043Z,11.40
2018-05-24T14:12:07.768Z,13.47
2018-05-24T14:14:10.468Z,14.13
2018-05-24T14:16:13.196Z,13.10
2018-05-24T14:18:15.903Z,14.83
2018-05-24T14:20:18.594Z,11.20
2018-05-24T14:22:21.270Z,10.87
2018-05-24T14:24:23.949Z,11.43
2018-05-24T14:26:26.655Z,9.30
2018-05-24T14:28:29.343Z,14.80
2018-05-24T14:30:32.074Z,14.67
2018-05-24T14:32:34.751Z,6.27
2018-05-24T14:34:37.469Z,5.27
2018-05-24T14:36:40.228Z,8.40
2018-05-24T14:38:43.680Z,6.30
2018-05-24T14:40:46.395Z,8.00
2018-05-24T14:42:49.859Z,8.37
2018-05-24T14:44:52.554Z,7.20
2018-05-24T14:46:55.277Z,8.47
2018-05-24T14:48:58.224Z,7.60
2018-05-24T14:51:01.693Z,7.00
2018-05-24T14:53:05.154Z,9.97
2018-05-24T14:55:07.852Z,7.00
2018-05-24T14:57:10.964Z,7.53
2018-05-24T14:59:13.651Z,8.53
2018-05-24T15:01:17.113Z,8.60
2018-05-24T15:03:20.191Z,14.10
2018-05-24T15:05:22.856Z,9.00
2018-05-24T15:07:25.563Z,11.03
2018-05-24T15:09:28.252Z,7.03
2018-05-24T15:11:30.917Z,6.53
2018-05-24T15:13:45.699Z,7.10
2018-05-24T15:15:49.178Z,6.47
2018-05-24T15:17:51.921Z,16.03
2018-05-24T15:19:54.619Z,8.73
2018-05-24T15:21:57.326Z,11.00
2018-05-24T15:24:00.810Z,7.73
2018-05-24T15:26:03.533Z,8.70
2018-05-24T15:28:06.353Z,7.10
2018-05-24T15:30:09.040Z,8.47
2018-05-24T15:32:11.713Z,10.13
2018-05-24T15:34:14.407Z,13.10
2018-05-24T15:36:17.886Z,13.63
2018-05-24T15:38:20.618Z,13.63
2018-05-24T15:40:23.316Z,8.23
2018-05-24T15:42:25.996Z,9.67
2018-05-24T15:44:28.754Z,11.77
2018-05-24T15:46:31.434Z,9.33
2018-05-24T15:48:34.137Z,9.83
2018-05-24T15:50:36.856Z,8.43
2018-05-24T15:52:39.533Z,7.17
2018-05-24T15:54:42.243Z,15.47
2018-05-24T15:56:44.921Z,10.87
2018-05-24T15:58:47.625Z,8.37
2018-05-24T16:00:50.322Z,11.13
2018-05-24T16:02:53.872Z,15.73
2018-05-24T16:04:56.600Z,10.70
2018-05-24T16:07:00.049Z,10.33
2018-05-24T16:09:02.750Z,12.13
2018-05-24T16:11:05.467Z,9.90
2018-05-24T16:13:08.159Z,6.60
2018-05-24T16:15:11.092Z,7.70
2018-05-24T16:17:13.783Z,8.23
2018-05-24T16:19:17.227Z,9.37
2018-05-24T16:21:19.939Z,7.30
2018-05-24T16:23:22.692Z,7.20
2018-05-24T16:25:25.423Z,8.03
2018-05-24T16:27:28.121Z,10.70
2018-05-24T16:29:30.810Z,7.80
2018-05-24T16:31:33.634Z,8.20
2018-05-24T16:33:37.181Z,7.77
2018-05-24T16:35:39.907Z,8.70
2018-05-24T16:37:43.402Z,8.30
2018-05-24T16:39:46.839Z,9.43
2018-05-24T16:41:49.540Z,14.10
2018-05-24T16:43:52.256Z,8.93
2018-05-24T16:45:54.978Z,8.90
2018-05-24T16:47:57.832Z,13.03
2018-05-24T16:50:01.639Z,10.03
2018-05-24T16:52:04.430Z,18.23
2018-05-24T16:54:07.367Z,17.80
2018-05-24T16:56:10.843Z,13.63
2018-05-24T16:58:13.578Z,14.53
2018-05-24T17:00:16.282Z,22.60
2018-05-24T17:02:19.114Z,12.17
2018-05-24T17:04:22.635Z,12.93
2018-05-24T17:06:25.334Z,14.47
2018-05-24T17:11:12.016Z,11.20
2018-05-24T17:13:28.218Z,15.50
2018-05-24T17:15:30.936Z,11.90
2018-05-24T17:17:33.674Z,13.20
2018-05-24T17:19:36.382Z,10.93
2018-05-24T17:21:39.075Z,12.20
2018-05-24T17:23:41.798Z,12.47
2018-05-24T17:25:44.477Z,15.30
2018-05-24T17:27:47.234Z,13.50
2018-05-24T17:29:50.691Z,13.83
2018-05-24T17:31:53.363Z,13.90
2018-05-24T17:33:56.107Z,13.50
2018-05-24T17:35:58.803Z,14.60
2018-05-24T17:38:01.523Z,18.03
2018-05-24T17:40:04.285Z,17.83
2018-05-24T17:42:07.048Z,13.10
2018-05-24T17:44:09.764Z,13.67
2018-05-24T17:46:12.481Z,12.80
2018-05-24T17:48:15.187Z,13.63
2018-05-24T17:50:17.892Z,15.90
2018-05-24T17:52:20.854Z,16.43
2018-05-24T17:54:23.724Z,12.80
2018-05-24T17:56:26.615Z,12.60
2018-05-24T17:58:29.391Z,14.50
2018-05-24T18:00:33.028Z,14.00
2018-05-24T18:02:36.513Z,12.07
2018-05-24T18:04:39.353Z,13.00
2018-05-24T18:06:42.064Z,11.10
2018-05-24T18:08:44.741Z,11.60
2018-05-24T18:10:47.466Z,14.57
2018-05-24T18:12:50.308Z,11.50
2018-05-24T18:14:53.102Z,10.70
2018-05-24T18:16:56.561Z,10.87
2018-05-24T18:18:59.337Z,12.77
2018-05-24T18:21:02.089Z,16.97
2018-05-24T18:23:04.857Z,12.10
2018-05-24T18:25:07.611Z,11.73
2018-05-24T18:27:11.091Z,12.73
2018-05-24T18:29:14.530Z,13.47
2018-05-24T18:31:17.348Z,12.27
2018-05-24T18:33:20.056Z,11.60
2018-05-24T18:35:23.572Z,18.83
2018-05-24T18:37:26.315Z,13.87
2018-05-24T18:39:29.019Z,13.70
2018-05-24T18:41:31.762Z,13.77
2018-05-24T18:43:34.454Z,15.70
2018-05-24T18:45:37.943Z,15.33
2018-05-24T18:47:40.755Z,17.67
2018-05-24T18:49:43.436Z,12.40
2018-05-24T18:51:46.591Z,14.73
2018-05-24T18:53:50.753Z,15.47
2018-05-24T18:55:53.597Z,14.47
2018-05-24T18:57:57.103Z,17.00
2018-05-24T18:59:59.813Z,13.90
2018-05-24T19:02:02.555Z,15.33
2018-05-24T19:04:05.304Z,15.60
2018-05-24T19:06:08.041Z,15.07
2018-05-24T19:08:10.788Z,12.43
2018-05-24T19:10:13.796Z,16.43
2018-05-24T19:12:16.550Z,17.20
2018-05-24T19:14:19.579Z,15.73
2018-05-24T19:16:23.256Z,14.33
2018-05-24T19:18:26.045Z,14.47
2018-05-24T19:20:28.754Z,13.63
2018-05-24T19:22:31.574Z,14.37
2018-05-24T19:24:38.212Z,13.93
2018-05-24T19:26:40.989Z,14.20
2018-05-24T19:28:45.138Z,19.67
2018-05-24T19:30:47.892Z,18.03
2018-05-24T19:32:51.394Z,22.50
2018-05-24T19:34:54.900Z,16.50
2018-05-24T19:36:58.540Z,19.37
2018-05-24T19:39:01.302Z,11.70
2018-05-24T19:41:04.088Z,13.83
2018-05-24T19:43:06.856Z,14.47
2018-05-24T19:45:10.420Z,13.37
2018-05-24T19:47:14.100Z,13.00
2018-05-24T19:49:16.897Z,13.83
2018-05-24T19:51:20.533Z,12.30
2018-05-24T19:53:23.220Z,13.33
2018-05-24T19:55:26.049Z,18.30
2018-05-24T19:57:29.651Z,22.60
2018-05-24T19:59:35.532Z,19.07
2018-05-24T20:01:38.365Z,14.87
2018-05-24T20:03:41.480Z,12.90
2018-05-24T20:05:44.786Z,12.90
2018-05-24T20:07:47.611Z,14.03
2018-05-24T20:09:51.605Z,14.27
2018-05-24T20:11:55.337Z,14.60
2018-05-24T20:13:58.588Z,15.63
2018-05-24T20:16:01.384Z,13.37
2018-05-24T20:18:04.217Z,18.43
2018-05-24T20:20:06.963Z,14.20
2018-05-24T20:22:10.449Z,12.57
2018-05-24T20:24:13.195Z,15.77
2018-05-24T20:26:16.009Z,14.40
2018-05-24T20:28:19.578Z,14.10
2018-05-24T20:30:22.410Z,13.87
2018-05-24T20:32:26.298Z,13.63
2018-05-24T20:34:29.820Z,13.20
2018-05-24T20:36:32.574Z,13.63
2018-05-24T20:38:36.111Z,16.83
2018-05-24T20:40:38.851Z,14.23
2018-05-24T20:42:42.440Z,13.80
2018-05-24T20:44:45.207Z,12.90
2018-05-24T20:46:47.971Z,14.17
2018-05-24T20:48:50.700Z,13.77
2018-05-24T20:50:53.470Z,11.60
2018-05-24T20:52:56.985Z,11.40
2018-05-24T20:54:59.708Z,11.93
2018-05-24T20:57:02.449Z,11.10
2018-05-24T20:59:05.161Z,12.83
2018-05-24T21:01:07.910Z,13.40
2018-05-24T21:03:10.688Z,11.07
2018-05-24T21:05:13.399Z,11.17
2018-05-24T21:07:16.222Z,12.90
2018-05-24T21:09:19.658Z,9.90
2018-05-24T21:11:22.420Z,13.50
2018-05-24T21:13:26.174Z,12.27
2018-05-24T21:15:29.669Z,10.87
2018-05-24T21:17:33.184Z,11.43
2018-05-24T21:19:35.902Z,10.90
2018-05-24T21:21:38.625Z,10.60
2018-05-24T21:23:42.119Z,9.90
2018-05-24T21:25:45.580Z,9.90
2018-05-24T21:27:48.292Z,14.20
2018-05-24T21:29:51.914Z,11.93
2018-05-24T21:31:54.614Z,11.10
2018-05-24T21:33:57.423Z,10.63
2018-05-24T21:36:00.116Z,10.93
2018-05-24T21:38:03.662Z,10.90
2018-05-24T21:40:06.430Z,10.60
2018-05-24T21:42:09.135Z,11.80
2018-05-24T21:44:14.110Z,12.33
2018-05-24T21:46:16.871Z,10.90
2018-05-24T21:48:22.454Z,16.27
2018-05-24T21:50:25.154Z,12.80
2018-05-24T21:52:27.939Z,11.70
2018-05-24T21:54:30.665Z,11.63
2018-05-24T21:56:34.190Z,11.90
2018-05-24T21:58:37.016Z,11.87
2018-05-24T22:00:45.445Z,11.87
2018-05-24T22:02:48.903Z,12.20
2018-05-24T22:04:51.806Z,13.13
2018-05-24T22:06:54.519Z,11.57
2018-05-24T22:08:57.383Z,14.60
2018-05-24T22:11:00.969Z,13.03
2018-05-24T22:13:03.626Z,12.70
2018-05-24T22:15:06.579Z,12.70
2018-05-24T22:17:09.350Z,13.27
2018-05-24T22:19:15.400Z,13.20
2018-05-24T22:21:18.159Z,15.63
2018-05-24T22:23:21.633Z,13.40
2018-05-24T22:25:24.395Z,14.70
2018-05-24T22:27:30.726Z,12.90
2018-05-24T22:29:34.317Z,16.53
2018-05-24T22:31:37.803Z,14.50
2018-05-24T22:33:40.509Z,17.80
2018-05-24T22:35:43.262Z,14.40
2018-05-24T22:37:45.974Z,17.50
2018-05-24T22:39:48.690Z,16.30
2018-05-24T22:41:52.179Z,14.23
2018-05-24T22:43:55.638Z,17.30
2018-05-24T22:45:58.368Z,14.90
2018-05-24T22:48:01.107Z,16.97
2018-05-24T22:50:03.854Z,15.47
2018-05-24T22:52:06.590Z,19.80
2018-05-24T22:54:10.373Z,16.80
2018-05-24T22:56:13.091Z,18.63
2018-05-24T22:58:15.852Z,15.30
2018-05-24T23:00:19.353Z,18.43
2018-05-24T23:02:22.088Z,18.73
2018-05-24T23:04:24.790Z,17.53
2018-05-24T23:06:28.294Z,16.70
2018-05-24T23:08:31.952Z,16.57
2018-05-24T23:10:34.879Z,17.83
2018-05-24T23:12:38.448Z,19.07
2018-05-24T23:14:41.219Z,18.33
2018-05-24T23:16:44.056Z,19.70
2018-05-24T23:18:46.779Z,17.77
2018-05-24T23:20:49.496Z,17.97
2018-05-24T23:22:52.239Z,19.03
2018-05-24T23:24:54.957Z,21.17
2018-05-24T23:26:57.662Z,18.67
2018-05-24T23:29:00.396Z,18.40
2018-05-24T23:31:03.136Z,20.03
2018-05-24T23:33:05.861Z,19.73
2018-05-24T23:35:08.604Z,17.83
2018-05-24T23:37:11.324Z,18.47
2018-05-24T23:39:14.069Z,19.93
2018-05-24T23:41:16.793Z,20.47
2018-05-24T23:43:19.522Z,19.30
2018-05-24T23:45:22.867Z,19.90
2018-05-24T23:47:25.793Z,20.67
2018-05-24T23:49:29.333Z,21.20
2018-05-24T23:51:32.083Z,20.60
2018-05-24T23:53:37.057Z,20.57
2018-05-24T23:55:39.783Z,19.00
2018-05-24T23:57:43.252Z,23.30
2018-05-24T23:59:46.182Z,19.33
